createdAt,value
2018-04-28T00:01:41.879Z,15.30
2018-04-28T00:07:02.355Z,15.30
2018-04-28T00:09:37.453Z,15.30
2018-04-28T00:12:09.387Z,15.30
2018-04-28T00:14:41.375Z,15.30
2018-04-28T00:17:13.043Z,15.30
2018-04-28T00:19:43.840Z,15.30
2018-04-28T00:22:18.706Z,15.30
2018-04-28T00:24:48.426Z,15.20
2018-04-28T00:27:19.120Z,15.20
2018-04-28T00:29:48.867Z,15.10
2018-04-28T00:32:18.651Z,15.10
2018-04-28T00:34:56.280Z,15.20
2018-04-28T00:37:42.029Z,15.20
2018-04-28T00:40:18.036Z,15.20
2018-04-28T00:42:48.211Z,15.10
2018-04-28T00:45:18.393Z,15.10
2018-04-28T00:47:54.609Z,15.00
2018-04-28T00:50:45.028Z,15.00
2018-04-28T00:53:17.611Z,15.00
2018-04-28T00:55:48.847Z,15.00
2018-04-28T00:58:38.497Z,15.00
2018-04-28T01:01:13.065Z,15.00
2018-04-28T01:03:47.236Z,15.10
2018-04-28T01:06:22.639Z,15.10
2018-04-28T01:08:54.800Z,15.10
2018-04-28T01:11:26.441Z,14.90
2018-04-28T01:14:16.209Z,14.90
2018-04-28T01:17:05.140Z,14.90
2018-04-28T01:19:41.112Z,14.90
2018-04-28T01:22:15.856Z,14.90
2018-04-28T01:24:51.616Z,14.90
2018-04-28T01:27:27.261Z,14.90
2018-04-28T01:33:02.516Z,14.90
2018-04-28T01:35:46.068Z,14.90
2018-04-28T01:38:18.659Z,14.80
2018-04-28T01:40:48.751Z,14.80
2018-04-28T01:43:21.244Z,14.90
2018-04-28T01:46:01.944Z,14.80
2018-04-28T01:48:35.580Z,14.70
2018-04-28T01:51:08.712Z,14.70
2018-04-28T01:53:47.725Z,14.70
2018-04-28T01:56:18.981Z,14.70
2018-04-28T01:58:51.277Z,14.60
2018-04-28T02:01:22.476Z,14.50
2018-04-28T02:03:52.734Z,14.40
2018-04-28T02:06:24.309Z,14.40
2018-04-28T02:08:54.994Z,14.40
2018-04-28T02:11:28.021Z,14.40
2018-04-28T02:13:58.181Z,14.30
2018-04-28T02:16:28.422Z,14.30
2018-04-28T02:18:59.124Z,14.20
2018-04-28T02:21:28.687Z,14.10
2018-04-28T02:24:04.811Z,14.00
2018-04-28T02:26:37.940Z,14.00
2018-04-28T02:29:18.964Z,13.90
2018-04-28T02:32:07.102Z,13.90
2018-04-28T02:34:55.079Z,13.90
2018-04-28T02:37:46.729Z,13.90
2018-04-28T02:40:19.532Z,14.00
2018-04-28T02:42:51.583Z,13.80
2018-04-28T02:45:22.421Z,13.80
2018-04-28T02:47:53.642Z,13.70
2018-04-28T02:50:23.220Z,13.70
2018-04-28T02:52:52.806Z,13.60
2018-04-28T02:55:28.377Z,13.40
2018-04-28T02:58:04.221Z,13.40
2018-04-28T03:00:34.227Z,13.40
2018-04-28T03:03:07.388Z,13.30
2018-04-28T03:05:40.014Z,13.20
2018-04-28T03:08:19.443Z,13.20
2018-04-28T03:10:50.704Z,13.20
2018-04-28T03:13:20.817Z,13.10
2018-04-28T03:15:50.805Z,13.10
2018-04-28T03:18:20.813Z,13.10
2018-04-28T03:20:52.379Z,13.10
2018-04-28T03:23:23.175Z,13.00
2018-04-28T03:25:54.345Z,13.00
2018-04-28T03:28:24.630Z,13.00
2018-04-28T03:30:55.714Z,12.90
2018-04-28T03:33:29.985Z,12.90
2018-04-28T03:36:03.545Z,12.90
2018-04-28T03:38:34.824Z,12.90
2018-04-28T03:41:05.629Z,12.90
2018-04-28T03:43:36.294Z,12.90
2018-04-28T03:46:06.088Z,12.80
2018-04-28T03:48:36.742Z,12.80
2018-04-28T03:51:10.056Z,12.80
2018-04-28T03:53:43.544Z,12.70
2018-04-28T03:56:12.939Z,12.80
2018-04-28T03:59:53.197Z,12.80
2018-04-28T04:03:31.678Z,12.80
2018-04-28T04:06:03.787Z,12.90
2018-04-28T04:08:49.450Z,13.00
2018-04-28T04:11:35.520Z,13.00
2018-04-28T04:14:05.590Z,13.00
2018-04-28T04:16:36.996Z,13.10
2018-04-28T04:19:09.224Z,13.20
2018-04-28T04:21:41.576Z,13.20
2018-04-28T04:24:12.072Z,13.20
2018-04-28T04:26:42.180Z,13.30
2018-04-28T04:29:18.119Z,13.30
2018-04-28T04:31:48.305Z,13.30
2018-04-28T04:34:20.114Z,13.40
2018-04-28T04:36:53.959Z,13.40
2018-04-28T04:39:24.939Z,13.30
2018-04-28T04:42:01.371Z,13.50
2018-04-28T04:44:31.284Z,13.40
2018-04-28T04:47:01.687Z,13.50
2018-04-28T04:49:31.676Z,13.50
2018-04-28T04:52:06.001Z,13.50
2018-04-28T04:54:38.610Z,13.50
2018-04-28T04:57:09.130Z,13.60
2018-04-28T04:59:39.883Z,13.60
2018-04-28T05:02:11.147Z,13.60
2018-04-28T05:04:45.488Z,13.50
2018-04-28T05:07:16.207Z,13.60
2018-04-28T05:09:47.134Z,13.60
2018-04-28T05:12:20.350Z,13.70
2018-04-28T05:14:49.635Z,13.60
2018-04-28T05:17:19.996Z,13.70
2018-04-28T05:20:00.020Z,13.70
2018-04-28T05:22:30.341Z,13.80
2018-04-28T05:25:06.284Z,13.80
2018-04-28T05:27:37.755Z,13.80
2018-04-28T05:30:16.681Z,13.70
2018-04-28T05:32:52.632Z,13.70
2018-04-28T05:35:22.091Z,13.70
2018-04-28T05:37:54.547Z,13.80
2018-04-28T05:40:27.499Z,13.90
2018-04-28T05:43:04.380Z,13.90
2018-04-28T05:45:38.787Z,14.00
2018-04-28T05:48:15.314Z,13.90
2018-04-28T05:50:46.466Z,13.90
2018-04-28T05:53:23.035Z,14.00
2018-04-28T05:55:55.129Z,14.00
2018-04-28T05:58:26.940Z,14.00
2018-04-28T06:00:57.250Z,14.10
2018-04-28T06:03:32.892Z,14.10
2018-04-28T06:06:08.082Z,14.00
2018-04-28T06:08:38.518Z,13.90
2018-04-28T06:11:09.906Z,14.00
2018-04-28T06:13:40.694Z,14.10
2018-04-28T06:16:13.352Z,14.10
2018-04-28T06:18:45.249Z,14.10
2018-04-28T06:21:15.221Z,14.10
2018-04-28T06:23:45.105Z,14.20
2018-04-28T06:26:15.002Z,14.30
2018-04-28T06:28:47.334Z,14.40
2018-04-28T06:31:17.663Z,14.50
2018-04-28T06:33:48.350Z,14.40
2018-04-28T06:36:19.523Z,14.50
2018-04-28T06:38:49.821Z,14.40
2018-04-28T06:41:20.473Z,14.50
2018-04-28T06:43:51.339Z,14.50
2018-04-28T06:46:22.247Z,14.50
2018-04-28T06:48:53.524Z,14.60
2018-04-28T06:51:29.818Z,14.60
2018-04-28T06:54:01.310Z,14.60
2018-04-28T06:56:32.624Z,14.70
2018-04-28T06:59:02.797Z,14.70
2018-04-28T07:01:34.672Z,14.70
2018-04-28T07:04:05.911Z,14.80
2018-04-28T07:06:37.781Z,14.80
2018-04-28T07:09:12.123Z,14.70
2018-04-28T07:11:43.623Z,14.80
2018-04-28T07:14:15.776Z,15.00
2018-04-28T07:16:47.837Z,15.10
2018-04-28T07:19:18.017Z,15.20
2018-04-28T07:21:51.165Z,15.20
2018-04-28T07:24:22.044Z,15.50
2018-04-28T07:26:52.566Z,15.50
2018-04-28T07:29:32.014Z,15.60
2018-04-28T07:32:05.895Z,15.50
2018-04-28T07:34:36.792Z,15.50
2018-04-28T07:37:06.577Z,15.50
2018-04-28T07:39:37.448Z,15.50
2018-04-28T07:42:08.584Z,15.60
2018-04-28T07:44:39.126Z,15.50
2018-04-28T07:47:11.186Z,15.60
2018-04-28T07:49:43.664Z,15.60
2018-04-28T07:52:16.468Z,15.60
2018-04-28T07:54:51.658Z,15.80
2018-04-28T07:57:23.328Z,15.80
2018-04-28T07:59:54.509Z,15.80
2018-04-28T08:02:24.816Z,15.80
2018-04-28T08:04:55.899Z,15.60
2018-04-28T08:07:26.004Z,15.60
2018-04-28T08:09:55.641Z,15.70
2018-04-28T08:12:26.373Z,15.60
2018-04-28T08:14:55.714Z,15.90
2018-04-28T08:17:26.714Z,16.00
2018-04-28T08:19:58.134Z,16.00
2018-04-28T08:22:27.520Z,16.00
2018-04-28T08:24:57.081Z,16.00
2018-04-28T08:27:30.145Z,16.10
2018-04-28T08:30:01.105Z,16.10
2018-04-28T08:32:44.607Z,16.00
2018-04-28T08:35:26.091Z,16.20
2018-04-28T08:38:00.687Z,16.30
2018-04-28T08:40:31.725Z,16.90
2018-04-28T08:43:04.217Z,16.90
2018-04-28T08:45:37.096Z,17.70
2018-04-28T08:48:20.255Z,17.90
2018-04-28T08:50:59.911Z,17.90
2018-04-28T08:53:39.699Z,18.60
2018-04-28T08:56:11.893Z,18.50
2018-04-28T08:58:43.669Z,19.00
2018-04-28T09:01:13.256Z,19.00
2018-04-28T09:03:44.285Z,20.30
2018-04-28T09:06:15.062Z,20.30
2018-04-28T09:09:47.035Z,20.30
2018-04-28T09:12:18.012Z,19.70
2018-04-28T09:14:48.210Z,19.90
2018-04-28T09:17:17.921Z,19.90
2018-04-28T09:19:48.559Z,19.60
2018-04-28T09:22:17.880Z,19.40
2018-04-28T09:24:47.986Z,18.90
2018-04-28T09:27:18.237Z,18.70
2018-04-28T09:29:51.077Z,19.50
2018-04-28T09:32:20.367Z,19.50
2018-04-28T09:34:59.782Z,19.60
2018-04-28T09:37:42.287Z,20.00
2018-04-28T09:40:12.050Z,20.00
2018-04-28T09:42:42.434Z,20.30
2018-04-28T09:45:12.460Z,20.40
2018-04-28T09:47:43.020Z,20.30
2018-04-28T09:50:14.069Z,20.00
2018-04-28T09:52:45.758Z,19.90
2018-04-28T09:55:18.229Z,20.40
2018-04-28T09:57:57.628Z,20.40
2018-04-28T10:00:34.206Z,20.30
2018-04-28T10:03:05.777Z,19.60
2018-04-28T10:05:36.005Z,19.10
2018-04-28T10:08:05.995Z,18.80
2018-04-28T10:10:37.789Z,19.60
2018-04-28T10:13:07.830Z,23.00
2018-04-28T10:15:37.238Z,23.00
2018-04-28T10:18:07.382Z,23.60
2018-04-28T10:20:38.121Z,23.00
2018-04-28T10:23:08.940Z,22.30
2018-04-28T10:25:39.167Z,21.50
2018-04-28T10:28:09.806Z,20.60
2018-04-28T10:30:42.751Z,20.10
2018-04-28T10:33:18.036Z,18.90
2018-04-28T10:35:56.566Z,18.90
2018-04-28T10:38:34.376Z,19.70
2018-04-28T10:41:05.214Z,19.70
2018-04-28T10:43:37.122Z,20.00
2018-04-28T10:46:08.572Z,20.20
2018-04-28T10:48:39.497Z,21.50
2018-04-28T10:51:09.010Z,21.30
2018-04-28T10:53:42.628Z,21.20
2018-04-28T10:56:17.059Z,21.20
2018-04-28T10:58:49.799Z,20.40
2018-04-28T11:01:20.304Z,20.10
2018-04-28T11:03:57.402Z,20.40
2018-04-28T11:06:28.771Z,20.10
2018-04-28T11:09:04.463Z,20.10
2018-04-28T11:11:34.170Z,19.90
2018-04-28T11:14:06.225Z,19.80
2018-04-28T11:16:37.629Z,19.70
2018-04-28T11:19:09.622Z,21.00
2018-04-28T11:21:40.886Z,21.00
2018-04-28T11:24:18.390Z,23.20
2018-04-28T11:27:01.233Z,23.40
2018-04-28T11:29:49.239Z,21.80
2018-04-28T11:32:20.020Z,21.00
2018-04-28T11:34:52.084Z,20.60
2018-04-28T11:37:22.360Z,20.90
2018-04-28T11:39:53.234Z,21.90
2018-04-28T11:42:23.629Z,21.40
2018-04-28T11:44:53.929Z,20.60
2018-04-28T11:47:27.466Z,20.30
2018-04-28T11:49:58.525Z,19.80
2018-04-28T11:52:28.431Z,19.60
2018-04-28T11:55:03.225Z,19.60
2018-04-28T11:57:36.994Z,20.40
2018-04-28T12:00:09.798Z,21.80
2018-04-28T12:02:47.922Z,26.60
2018-04-28T12:05:28.469Z,26.50
2018-04-28T12:08:01.877Z,26.40
2018-04-28T12:10:32.262Z,24.50
2018-04-28T12:13:03.856Z,23.50
2018-04-28T12:15:34.208Z,22.90
2018-04-28T12:18:06.011Z,22.80
2018-04-28T12:20:36.583Z,22.40
2018-04-28T12:23:17.159Z,22.10
2018-04-28T12:25:52.009Z,20.70
2018-04-28T12:28:37.469Z,20.70
2018-04-28T12:31:18.765Z,20.20
2018-04-28T12:33:56.184Z,20.20
2018-04-28T12:36:40.867Z,20.50
2018-04-28T12:39:11.803Z,20.90
2018-04-28T12:41:46.218Z,20.60
2018-04-28T12:44:18.397Z,20.60
2018-04-28T12:46:50.619Z,20.40
2018-04-28T12:49:23.621Z,20.10
2018-04-28T12:51:56.473Z,20.10
2018-04-28T12:54:27.106Z,19.80
2018-04-28T12:56:59.205Z,19.70
2018-04-28T12:59:33.089Z,19.80
2018-04-28T13:02:10.192Z,19.90
2018-04-28T13:04:46.152Z,19.80
2018-04-28T13:07:25.555Z,19.70
2018-04-28T13:10:05.103Z,19.60
2018-04-28T13:12:52.064Z,19.70
2018-04-28T13:15:30.891Z,19.80
2018-04-28T13:18:13.144Z,20.00
2018-04-28T13:21:04.490Z,20.10
2018-04-28T13:23:38.937Z,20.70
2018-04-28T13:26:21.090Z,20.50
2018-04-28T13:29:02.723Z,20.40
2018-04-28T13:34:25.326Z,20.70
2018-04-28T13:36:58.036Z,20.60
2018-04-28T13:39:31.427Z,20.50
2018-04-28T13:42:02.586Z,20.80
2018-04-28T13:44:35.165Z,21.30
2018-04-28T13:47:06.520Z,21.30
2018-04-28T13:49:52.171Z,21.00
2018-04-28T13:52:30.873Z,20.90
2018-04-28T13:55:02.531Z,20.90
2018-04-28T13:57:36.210Z,20.70
2018-04-28T14:00:20.192Z,20.60
2018-04-28T14:02:50.448Z,20.40
2018-04-28T14:05:23.651Z,20.30
2018-04-28T14:07:54.963Z,20.20
2018-04-28T14:10:37.759Z,20.20
2018-04-28T14:13:10.626Z,20.10
2018-04-28T14:15:42.408Z,20.10
2018-04-28T14:18:13.996Z,20.10
2018-04-28T14:20:49.794Z,20.40
2018-04-28T14:23:23.650Z,20.40
2018-04-28T14:25:56.766Z,20.50
2018-04-28T14:28:27.081Z,20.50
2018-04-28T14:31:30.394Z,20.30
2018-04-28T14:34:14.171Z,19.80
2018-04-28T14:36:50.952Z,19.80
2018-04-28T14:39:21.529Z,19.80
2018-04-28T14:41:59.435Z,19.70
2018-04-28T14:44:31.481Z,19.70
2018-04-28T14:47:11.254Z,19.80
2018-04-28T14:49:45.401Z,19.90
2018-04-28T14:52:20.258Z,19.90
2018-04-28T14:54:56.390Z,20.10
2018-04-28T14:57:28.661Z,20.40
2018-04-28T15:00:01.136Z,20.50
2018-04-28T15:02:36.229Z,20.50
2018-04-28T15:05:14.456Z,20.40
2018-04-28T15:08:01.800Z,20.20
2018-04-28T15:10:36.488Z,19.80
2018-04-28T15:13:07.960Z,19.70
2018-04-28T15:15:41.020Z,19.70
2018-04-28T15:18:12.738Z,19.70
2018-04-28T15:20:48.233Z,19.70
2018-04-28T15:23:23.874Z,19.80
2018-04-28T15:25:58.194Z,19.60
2018-04-28T15:28:43.245Z,19.50
2018-04-28T15:31:31.536Z,19.50
2018-04-28T15:34:02.950Z,19.50
2018-04-28T15:36:37.604Z,19.60
2018-04-28T15:39:10.133Z,19.60
2018-04-28T15:41:44.249Z,19.50
2018-04-28T15:44:19.816Z,19.40
2018-04-28T15:46:50.572Z,19.30
2018-04-28T15:49:22.699Z,19.10
2018-04-28T15:51:53.785Z,19.30
2018-04-28T15:54:25.155Z,19.30
2018-04-28T15:56:59.062Z,19.30
2018-04-28T15:59:47.090Z,19.20
2018-04-28T16:02:30.205Z,19.20
2018-04-28T16:05:24.121Z,19.20
2018-04-28T16:07:54.944Z,19.20
2018-04-28T16:10:46.580Z,19.10
2018-04-28T16:13:30.285Z,19.20
2018-04-28T16:16:00.648Z,19.20
2018-04-28T16:18:42.409Z,19.10
2018-04-28T16:21:22.371Z,19.20
2018-04-28T16:23:55.917Z,19.30
2018-04-28T16:26:31.432Z,19.40
2018-04-28T16:29:03.592Z,19.40
2018-04-28T16:31:36.521Z,19.40
2018-04-28T16:34:07.241Z,19.40
2018-04-28T16:36:37.505Z,19.40
2018-04-28T16:39:12.289Z,19.40
2018-04-28T16:41:42.805Z,19.40
2018-04-28T16:44:13.558Z,19.30
2018-04-28T16:46:51.211Z,19.20
2018-04-28T16:49:29.886Z,19.20
2018-04-28T16:52:01.847Z,19.20
2018-04-28T16:54:36.778Z,19.20
2018-04-28T16:57:10.114Z,19.10
2018-04-28T16:59:39.524Z,19.20
2018-04-28T17:02:14.475Z,19.20
2018-04-28T17:04:56.900Z,18.90
2018-04-28T17:07:28.041Z,18.70
2018-04-28T17:09:58.359Z,18.50
2018-04-28T17:12:31.089Z,18.40
2018-04-28T17:15:02.099Z,18.40
2018-04-28T17:17:43.831Z,18.30
2018-04-28T17:20:16.562Z,18.20
2018-04-28T17:22:47.215Z,18.20
2018-04-28T17:25:18.992Z,18.10
2018-04-28T17:28:03.288Z,18.00
2018-04-28T17:30:35.163Z,18.00
2018-04-28T17:33:05.621Z,18.10
2018-04-28T17:35:41.172Z,18.10
2018-04-28T17:38:15.272Z,18.10
2018-04-28T17:40:45.460Z,18.10
2018-04-28T17:43:24.359Z,18.20
2018-04-28T17:45:57.073Z,18.20
2018-04-28T17:48:33.749Z,18.10
2018-04-28T17:51:20.489Z,18.20
2018-04-28T17:53:57.827Z,18.10
2018-04-28T17:56:32.160Z,17.90
2018-04-28T17:59:04.217Z,17.90
2018-04-28T18:01:37.012Z,18.00
2018-04-28T18:04:26.703Z,17.90
2018-04-28T18:07:17.961Z,17.90
2018-04-28T18:10:05.243Z,17.90
2018-04-28T18:13:07.678Z,17.90
2018-04-28T18:15:48.496Z,18.00
2018-04-28T18:18:36.454Z,17.80
2018-04-28T18:21:10.686Z,17.70
2018-04-28T18:23:41.748Z,17.50
2018-04-28T18:26:41.198Z,17.50
2018-04-28T18:29:12.161Z,17.40
2018-04-28T18:31:57.984Z,17.40
2018-04-28T18:34:37.200Z,17.40
2018-04-28T18:37:14.419Z,17.50
2018-04-28T18:39:49.921Z,17.50
2018-04-28T18:42:23.582Z,17.70
2018-04-28T18:44:57.464Z,17.80
2018-04-28T18:47:36.121Z,17.50
2018-04-28T18:50:14.805Z,17.50
2018-04-28T18:52:59.966Z,17.50
2018-04-28T18:55:37.513Z,17.40
2018-04-28T18:58:09.833Z,17.20
2018-04-28T19:00:54.069Z,17.20
2018-04-28T19:03:40.118Z,17.30
2018-04-28T19:06:17.929Z,17.40
2018-04-28T19:09:01.341Z,17.50
2018-04-28T19:11:42.983Z,17.60
2018-04-28T19:14:15.916Z,17.80
2018-04-28T19:16:46.678Z,18.00
2018-04-28T19:19:27.814Z,18.00
2018-04-28T19:22:00.712Z,18.10
2018-04-28T19:24:32.592Z,18.00
2018-04-28T19:29:51.779Z,17.90
2018-04-28T19:32:36.726Z,17.90
2018-04-28T19:35:26.727Z,17.90
2018-04-28T19:38:02.297Z,18.00
2018-04-28T19:40:37.236Z,17.90
2018-04-28T19:43:09.213Z,18.00
2018-04-28T19:45:42.824Z,18.00
2018-04-28T19:48:14.984Z,18.00
2018-04-28T19:50:45.755Z,17.70
2018-04-28T19:53:18.152Z,17.60
2018-04-28T19:55:53.944Z,17.60
2018-04-28T19:58:33.962Z,17.70
2018-04-28T20:01:09.058Z,17.70
2018-04-28T20:03:49.661Z,17.60
2018-04-28T20:06:29.713Z,17.60
2018-04-28T20:09:05.079Z,17.50
2018-04-28T20:11:39.237Z,17.60
2018-04-28T20:14:14.093Z,17.50
2018-04-28T20:16:45.076Z,17.50
2018-04-28T20:19:20.325Z,17.50
2018-04-28T20:21:50.999Z,17.50
2018-04-28T20:25:23.561Z,17.50
2018-04-28T20:27:58.363Z,17.40
2018-04-28T20:31:00.157Z,17.40
2018-04-28T20:34:01.169Z,17.40
2018-04-28T20:36:41.044Z,17.50
2018-04-28T20:39:24.541Z,17.30
2018-04-28T20:42:30.238Z,17.20
2018-04-28T20:45:17.051Z,17.20
2018-04-28T20:48:08.639Z,17.20
2018-04-28T20:50:39.944Z,17.20
2018-04-28T20:53:37.042Z,17.10
2018-04-28T20:56:16.426Z,17.10
2018-04-28T20:58:47.561Z,17.10
2018-04-28T21:01:24.228Z,17.10
2018-04-28T21:03:57.773Z,17.00
2018-04-28T21:06:39.060Z,17.00
2018-04-28T21:09:22.224Z,16.90
2018-04-28T21:12:07.347Z,16.90
2018-04-28T21:14:58.115Z,16.90
2018-04-28T21:17:29.581Z,16.80
2018-04-28T21:20:04.411Z,16.60
2018-04-28T21:22:36.138Z,16.50
2018-04-28T21:25:14.592Z,16.50
2018-04-28T21:27:55.534Z,16.50
2018-04-28T21:30:32.887Z,16.60
2018-04-28T21:33:15.444Z,16.50
2018-04-28T21:35:47.833Z,16.40
2018-04-28T21:38:18.572Z,16.40
2018-04-28T21:40:51.618Z,16.30
2018-04-28T21:43:31.110Z,16.30
2018-04-28T21:46:04.284Z,16.20
2018-04-28T21:48:53.036Z,16.10
2018-04-28T21:51:27.344Z,16.00
2018-04-28T21:54:00.489Z,16.00
2018-04-28T21:56:31.398Z,16.00
2018-04-28T21:59:18.643Z,15.90
2018-04-28T22:02:03.414Z,15.90
2018-04-28T22:04:44.915Z,15.80
2018-04-28T22:07:18.949Z,15.70
2018-04-28T22:09:57.307Z,15.60
2018-04-28T22:12:31.681Z,15.50
2018-04-28T22:15:10.435Z,15.40
2018-04-28T22:17:40.211Z,15.40
2018-04-28T22:20:15.966Z,15.40
2018-04-28T22:22:46.124Z,15.40
2018-04-28T22:25:27.144Z,15.20
2018-04-28T22:28:02.546Z,15.20
2018-04-28T22:30:43.621Z,15.10
2018-04-28T22:33:22.922Z,15.10
2018-04-28T22:35:58.951Z,15.00
2018-04-28T22:38:47.704Z,14.90
2018-04-28T22:41:29.471Z,14.90
2018-04-28T22:44:07.510Z,14.80
2018-04-28T22:46:42.927Z,14.70
2018-04-28T22:49:20.086Z,14.80
2018-04-28T22:51:51.971Z,14.70
2018-04-28T22:54:24.395Z,14.70
2018-04-28T22:57:12.952Z,14.60
2018-04-28T22:59:47.382Z,14.60
2018-04-28T23:02:36.414Z,14.50
2018-04-28T23:05:21.190Z,14.50
2018-04-28T23:07:58.113Z,14.50
2018-04-28T23:10:29.695Z,14.40
2018-04-28T23:13:10.549Z,14.40
2018-04-28T23:15:41.923Z,14.40
2018-04-28T23:18:14.352Z,14.40
2018-04-28T23:20:59.804Z,14.30
2018-04-28T23:23:43.532Z,14.20
2018-04-28T23:26:29.054Z,14.30
2018-04-28T23:29:05.151Z,14.20
2018-04-28T23:31:37.433Z,14.10
2018-04-28T23:34:22.656Z,14.00
2018-04-28T23:37:11.327Z,13.90
2018-04-28T23:39:48.411Z,13.90
2018-04-28T23:42:39.103Z,13.80
2018-04-28T23:45:18.480Z,13.80
2018-04-28T23:47:57.548Z,13.80
2018-04-28T23:50:39.936Z,13.70
2018-04-28T23:53:13.923Z,13.70
2018-04-28T23:55:55.221Z,13.60
2018-04-28T23:58:36.491Z,13.60
